createdAt,value
2022-12-31T00:02:01.349Z,3.13
2022-12-31T00:04:28.848Z,3.07
2022-12-31T00:06:56.126Z,3.17
2022-12-31T00:09:23.446Z,3.13
2022-12-31T00:11:50.730Z,3.50
2022-12-31T00:14:18.088Z,3.43
2022-12-31T00:16:45.559Z,3.10
2022-12-31T00:19:13.362Z,3.50
2022-12-31T00:21:40.797Z,3.53
2022-12-31T00:24:08.610Z,2.67
2022-12-31T00:26:36.528Z,3.23
2022-12-31T00:29:04.645Z,2.90
2022-12-31T00:31:38.709Z,2.70
2022-12-31T00:34:06.486Z,2.20
2022-12-31T00:36:35.662Z,2.13
2022-12-31T00:39:03.866Z,2.33
2022-12-31T00:41:31.508Z,2.60
2022-12-31T00:43:59.298Z,3.00
2022-12-31T00:46:27.193Z,2.70
2022-12-31T00:48:55.025Z,2.97
2022-12-31T00:51:23.309Z,2.67
2022-12-31T00:53:50.919Z,2.53
2022-12-31T00:56:19.889Z,2.20
2022-12-31T00:58:47.251Z,2.60
2022-12-31T01:01:17.796Z,1.93
2022-12-31T01:03:45.137Z,2.00
2022-12-31T01:06:12.745Z,2.23
2022-12-31T01:08:40.228Z,2.13
2022-12-31T01:11:19.612Z,2.10
2022-12-31T01:13:47.745Z,1.93
2022-12-31T01:16:15.516Z,1.73
2022-12-31T01:18:42.874Z,2.00
2022-12-31T01:21:11.897Z,1.77
2022-12-31T01:23:39.288Z,1.47
2022-12-31T01:26:08.279Z,1.27
2022-12-31T01:28:36.016Z,1.37
2022-12-31T01:31:14.324Z,1.57
2022-12-31T01:33:42.137Z,1.47
2022-12-31T01:36:11.694Z,1.40
2022-12-31T01:38:39.007Z,1.20
2022-12-31T01:41:06.544Z,1.10
2022-12-31T01:44:09.063Z,1.17
2022-12-31T01:46:42.141Z,1.10
2022-12-31T01:49:12.534Z,1.10
2022-12-31T01:51:41.133Z,1.00
2022-12-31T01:54:10.156Z,0.90
2022-12-31T01:56:38.374Z,0.80
2022-12-31T01:59:07.689Z,0.93
2022-12-31T02:01:36.845Z,0.83
2022-12-31T02:04:06.240Z,1.00
2022-12-31T02:06:37.537Z,0.80
2022-12-31T02:09:04.947Z,0.60
2022-12-31T02:11:36.496Z,0.80
2022-12-31T02:14:06.652Z,1.27
2022-12-31T02:16:44.805Z,0.97
2022-12-31T02:19:18.774Z,0.90
2022-12-31T02:21:51.644Z,1.00
2022-12-31T02:24:28.567Z,0.80
2022-12-31T02:27:02.043Z,1.40
2022-12-31T02:29:35.527Z,0.80
2022-12-31T02:32:23.042Z,0.73
2022-12-31T02:34:55.221Z,0.80
2022-12-31T02:37:24.713Z,0.80
2022-12-31T02:39:52.533Z,0.70
2022-12-31T02:42:19.834Z,1.00
2022-12-31T02:44:47.192Z,0.90
2022-12-31T02:47:14.537Z,1.07
2022-12-31T02:49:41.803Z,1.00
2022-12-31T02:52:18.942Z,0.90
2022-12-31T02:54:59.813Z,0.80
2022-12-31T02:57:30.954Z,0.90
2022-12-31T03:00:18.288Z,0.80
2022-12-31T03:02:46.951Z,0.80
2022-12-31T03:05:16.310Z,1.00
2022-12-31T03:07:44.774Z,0.77
2022-12-31T03:10:12.332Z,0.63
2022-12-31T03:12:47.195Z,0.60
2022-12-31T03:15:31.447Z,0.60
2022-12-31T03:18:01.092Z,0.53
2022-12-31T03:21:08.846Z,0.40
2022-12-31T03:23:37.970Z,0.47
2022-12-31T03:26:11.623Z,0.40
2022-12-31T03:28:40.377Z,0.80
2022-12-31T03:31:08.162Z,0.43
2022-12-31T03:33:37.047Z,0.40
2022-12-31T03:36:08.528Z,0.50
2022-12-31T03:38:35.984Z,0.40
2022-12-31T03:41:03.494Z,0.30
2022-12-31T03:43:30.884Z,0.50
2022-12-31T03:46:01.766Z,0.60
2022-12-31T03:48:29.664Z,0.60
2022-12-31T03:50:56.975Z,0.57
2022-12-31T03:53:24.696Z,0.37
2022-12-31T03:55:53.379Z,0.37
2022-12-31T03:58:20.905Z,0.53
2022-12-31T04:00:48.408Z,0.50
2022-12-31T04:03:15.957Z,0.50
2022-12-31T04:05:43.286Z,0.40
2022-12-31T04:08:10.803Z,0.40
2022-12-31T04:10:38.250Z,0.40
2022-12-31T04:13:05.521Z,0.40
2022-12-31T04:15:33.107Z,0.60
2022-12-31T04:18:00.528Z,0.60
2022-12-31T04:20:27.780Z,0.60
2022-12-31T04:22:55.131Z,0.30
2022-12-31T04:25:22.404Z,0.40
2022-12-31T04:27:49.808Z,0.50
2022-12-31T04:30:17.136Z,0.50
2022-12-31T04:32:44.395Z,0.50
2022-12-31T04:35:11.973Z,0.60
2022-12-31T04:37:39.460Z,0.40
2022-12-31T04:40:07.518Z,0.33
2022-12-31T04:42:36.433Z,0.60
2022-12-31T04:45:04.250Z,0.77
2022-12-31T04:47:31.770Z,0.70
2022-12-31T04:49:59.168Z,0.50
2022-12-31T04:52:26.491Z,0.47
2022-12-31T04:54:53.782Z,0.60
2022-12-31T04:57:21.042Z,0.63
2022-12-31T04:59:48.339Z,0.50
2022-12-31T05:02:15.903Z,0.40
2022-12-31T05:04:43.486Z,0.43
2022-12-31T05:07:10.863Z,0.40
2022-12-31T05:09:38.420Z,0.50
2022-12-31T05:12:06.024Z,0.60
2022-12-31T05:14:33.352Z,0.70
2022-12-31T05:17:04.964Z,0.80
2022-12-31T05:19:32.295Z,0.70
2022-12-31T05:22:18.408Z,0.50
2022-12-31T05:24:45.773Z,0.50
2022-12-31T05:27:13.052Z,0.50
2022-12-31T05:29:40.380Z,0.57
2022-12-31T05:32:07.686Z,0.40
2022-12-31T05:34:34.930Z,0.40
2022-12-31T05:37:02.196Z,0.40
2022-12-31T05:39:29.484Z,0.33
2022-12-31T05:41:56.889Z,0.50
2022-12-31T05:44:24.244Z,0.47
2022-12-31T05:46:51.702Z,0.60
2022-12-31T05:49:19.102Z,0.67
2022-12-31T05:51:46.425Z,0.47
2022-12-31T05:54:13.708Z,0.30
2022-12-31T05:56:41.085Z,0.70
2022-12-31T05:59:08.371Z,0.40
2022-12-31T06:01:35.698Z,0.40
2022-12-31T06:04:03.164Z,0.50
2022-12-31T06:06:30.555Z,0.60
2022-12-31T06:08:57.941Z,0.30
2022-12-31T06:11:25.303Z,0.50
2022-12-31T06:13:55.692Z,0.47
2022-12-31T06:16:23.081Z,0.70
2022-12-31T06:18:51.129Z,0.57
2022-12-31T06:21:19.052Z,0.50
2022-12-31T06:23:46.529Z,0.50
2022-12-31T06:26:13.896Z,0.50
2022-12-31T06:28:41.326Z,0.40
2022-12-31T06:31:09.890Z,0.50
2022-12-31T06:33:37.844Z,0.40
2022-12-31T06:36:06.860Z,0.67
2022-12-31T06:38:35.150Z,0.47
2022-12-31T06:41:10.538Z,0.37
2022-12-31T06:43:38.617Z,0.60
2022-12-31T06:46:06.879Z,0.50
2022-12-31T06:48:34.685Z,0.70
2022-12-31T06:51:05.746Z,0.73
2022-12-31T06:53:33.426Z,0.93
2022-12-31T06:56:11.133Z,1.00
2022-12-31T06:58:38.620Z,0.87
2022-12-31T07:01:24.613Z,1.00
2022-12-31T07:03:58.728Z,1.10
2022-12-31T07:06:36.050Z,0.70
2022-12-31T07:09:12.925Z,0.60
2022-12-31T07:11:45.843Z,0.70
2022-12-31T07:14:31.687Z,0.60
2022-12-31T07:17:08.188Z,0.60
2022-12-31T07:19:38.609Z,0.70
2022-12-31T07:22:06.524Z,0.80
2022-12-31T07:24:34.056Z,0.50
2022-12-31T07:27:16.687Z,0.63
2022-12-31T07:30:00.564Z,0.73
2022-12-31T07:32:36.686Z,0.90
2022-12-31T07:35:22.451Z,0.63
2022-12-31T07:38:08.546Z,0.93
2022-12-31T07:40:54.242Z,1.20
2022-12-31T07:43:34.312Z,2.73
2022-12-31T07:46:04.692Z,6.07
2022-12-31T07:48:32.126Z,3.77
2022-12-31T07:50:59.691Z,2.10
2022-12-31T07:53:27.614Z,1.40
2022-12-31T07:55:57.305Z,1.50
2022-12-31T07:58:43.215Z,1.50
2022-12-31T08:01:12.425Z,1.20
2022-12-31T08:03:55.890Z,1.30
2022-12-31T08:06:29.240Z,1.20
2022-12-31T08:09:02.364Z,1.30
2022-12-31T08:11:49.983Z,2.90
2022-12-31T08:14:17.890Z,3.10
2022-12-31T08:16:45.450Z,3.60
2022-12-31T08:19:21.344Z,2.80
2022-12-31T08:22:07.412Z,1.70
2022-12-31T08:24:53.243Z,1.60
2022-12-31T08:27:32.831Z,1.27
2022-12-31T08:30:09.868Z,1.27
2022-12-31T08:32:40.258Z,1.30
2022-12-31T08:35:26.325Z,1.30
2022-12-31T08:38:02.575Z,1.30
2022-12-31T08:40:35.617Z,1.10
2022-12-31T08:43:29.013Z,1.57
2022-12-31T08:45:59.364Z,1.20
2022-12-31T08:48:32.529Z,1.97
2022-12-31T08:51:00.129Z,2.00
2022-12-31T08:53:27.895Z,1.47
2022-12-31T08:56:14.492Z,1.60
2022-12-31T08:58:49.252Z,1.00
2022-12-31T09:01:21.782Z,0.60
2022-12-31T09:03:55.385Z,1.10
2022-12-31T09:06:46.013Z,2.20
2022-12-31T09:09:20.379Z,2.10
2022-12-31T09:11:53.454Z,2.00
2022-12-31T09:14:26.484Z,1.20
2022-12-31T09:16:59.799Z,1.30
2022-12-31T09:19:28.697Z,1.27
2022-12-31T09:21:58.844Z,1.40
2022-12-31T09:24:26.296Z,1.60
2022-12-31T09:27:01.566Z,1.60
2022-12-31T09:29:37.279Z,1.87
2022-12-31T09:32:04.672Z,1.70
2022-12-31T09:34:37.008Z,1.53
2022-12-31T09:37:06.569Z,1.90
2022-12-31T09:39:47.808Z,3.00
2022-12-31T09:42:44.436Z,7.60
2022-12-31T09:45:11.807Z,7.17
2022-12-31T09:47:59.917Z,2.50
2022-12-31T09:50:46.503Z,1.90
2022-12-31T09:53:26.112Z,6.10
2022-12-31T09:55:57.225Z,4.93
2022-12-31T09:58:24.979Z,3.90
2022-12-31T10:01:11.609Z,3.87
2022-12-31T10:03:51.023Z,4.90
2022-12-31T10:06:18.285Z,2.87
2022-12-31T10:09:03.634Z,1.80
2022-12-31T10:11:39.856Z,1.07
2022-12-31T10:14:32.357Z,0.93
2022-12-31T10:17:02.801Z,1.30
2022-12-31T10:19:45.324Z,1.10
2022-12-31T10:22:36.381Z,1.20
2022-12-31T10:25:15.857Z,1.23
2022-12-31T10:27:52.514Z,1.43
2022-12-31T10:30:21.234Z,1.40
2022-12-31T10:32:48.536Z,1.27
2022-12-31T10:35:34.571Z,1.60
2022-12-31T10:38:12.596Z,1.47
2022-12-31T10:40:58.767Z,1.40
2022-12-31T10:43:28.877Z,1.60
2022-12-31T10:46:05.386Z,1.20
2022-12-31T10:48:51.483Z,1.30
2022-12-31T10:51:20.868Z,1.37
2022-12-31T10:54:06.912Z,1.30
2022-12-31T10:57:07.037Z,1.50
2022-12-31T10:59:43.799Z,1.17
2022-12-31T11:02:17.396Z,1.00
2022-12-31T11:04:57.115Z,2.00
2022-12-31T11:07:27.179Z,1.53
2022-12-31T11:10:13.277Z,1.40
2022-12-31T11:12:40.641Z,1.30
2022-12-31T11:15:23.038Z,1.10
2022-12-31T11:18:09.164Z,0.90
2022-12-31T11:20:56.241Z,0.70
2022-12-31T11:23:38.006Z,0.77
2022-12-31T11:26:17.602Z,0.97
2022-12-31T11:29:03.917Z,1.10
2022-12-31T11:31:50.076Z,0.77
2022-12-31T11:34:37.640Z,0.80
2022-12-31T11:37:04.926Z,0.70
2022-12-31T11:39:40.541Z,0.60
2022-12-31T11:42:22.907Z,0.70
2022-12-31T11:44:50.178Z,0.70
2022-12-31T11:47:49.702Z,0.50
2022-12-31T11:50:28.298Z,0.60
2022-12-31T11:52:58.419Z,0.57
2022-12-31T11:55:31.779Z,0.60
2022-12-31T11:58:03.779Z,0.63
2022-12-31T12:00:31.242Z,0.90
2022-12-31T12:03:00.866Z,0.90
2022-12-31T12:05:28.901Z,0.70
2022-12-31T12:07:56.540Z,0.70
2022-12-31T12:10:35.625Z,0.67
2022-12-31T12:13:11.866Z,0.80
2022-12-31T12:15:39.343Z,0.90
2022-12-31T12:18:14.574Z,1.10
2022-12-31T12:20:42.227Z,0.80
2022-12-31T12:23:17.706Z,0.63
2022-12-31T12:25:45.645Z,0.60
2022-12-31T12:28:33.293Z,0.90
2022-12-31T12:31:02.027Z,0.90
2022-12-31T12:33:30.651Z,0.80
2022-12-31T12:36:11.815Z,0.90
2022-12-31T12:38:39.196Z,0.70
2022-12-31T12:41:08.112Z,0.90
2022-12-31T12:43:37.059Z,0.80
2022-12-31T12:46:05.871Z,1.03
2022-12-31T12:48:40.998Z,0.87
2022-12-31T12:51:14.333Z,0.87
2022-12-31T12:53:49.833Z,0.70
2022-12-31T12:56:33.022Z,0.73
2022-12-31T12:59:12.410Z,0.70
2022-12-31T13:01:52.883Z,1.07
2022-12-31T13:04:35.627Z,1.00
2022-12-31T13:07:11.321Z,0.90
2022-12-31T13:09:50.055Z,0.63
2022-12-31T13:12:24.252Z,0.70
2022-12-31T13:15:04.554Z,0.80
2022-12-31T13:17:54.986Z,2.30
2022-12-31T13:20:42.853Z,3.67
2022-12-31T13:23:13.226Z,2.73
2022-12-31T13:25:46.696Z,1.20
2022-12-31T13:28:16.112Z,0.90
2022-12-31T13:30:46.337Z,0.80
2022-12-31T13:33:19.855Z,0.70
2022-12-31T13:35:49.553Z,1.90
2022-12-31T13:38:40.014Z,1.87
2022-12-31T13:41:19.628Z,1.20
2022-12-31T13:44:05.863Z,0.90
2022-12-31T13:46:42.254Z,0.60
2022-12-31T13:49:15.705Z,0.73
2022-12-31T13:51:47.894Z,1.10
2022-12-31T13:54:20.933Z,1.00
2022-12-31T13:56:49.829Z,1.00
2022-12-31T13:59:21.613Z,0.90
2022-12-31T14:01:57.933Z,0.67
2022-12-31T14:04:25.420Z,0.67
2022-12-31T14:06:56.690Z,0.70
2022-12-31T14:09:25.898Z,0.87
2022-12-31T14:12:04.983Z,0.90
2022-12-31T14:14:50.937Z,1.17
2022-12-31T14:17:31.895Z,0.70
2022-12-31T14:20:17.901Z,0.70
2022-12-31T14:23:03.223Z,0.70
2022-12-31T14:25:39.735Z,0.70
2022-12-31T14:28:08.698Z,0.80
2022-12-31T14:30:38.265Z,0.80
2022-12-31T14:33:23.820Z,0.70
2022-12-31T14:36:02.840Z,0.77
2022-12-31T14:39:03.289Z,1.13
2022-12-31T14:41:40.772Z,0.93
2022-12-31T14:44:30.696Z,1.10
2022-12-31T14:47:16.539Z,1.20
2022-12-31T14:49:43.894Z,1.20
2022-12-31T14:52:16.938Z,1.00
2022-12-31T14:54:44.297Z,0.90
2022-12-31T14:57:24.296Z,0.90
2022-12-31T14:59:58.867Z,0.87
2022-12-31T15:02:27.928Z,1.37
2022-12-31T15:05:24.552Z,1.40
2022-12-31T15:07:58.692Z,1.50
2022-12-31T15:11:04.330Z,2.20
2022-12-31T15:13:31.616Z,1.20
2022-12-31T15:16:04.895Z,1.40
2022-12-31T15:18:35.614Z,1.10
2022-12-31T15:21:05.653Z,1.23
2022-12-31T15:23:40.374Z,1.13
2022-12-31T15:26:27.701Z,1.07
2022-12-31T15:29:06.052Z,1.10
2022-12-31T15:31:34.524Z,1.40
2022-12-31T15:34:24.622Z,1.20
2022-12-31T15:36:56.116Z,1.60
2022-12-31T15:39:28.477Z,1.33
2022-12-31T15:45:00.214Z,1.60
2022-12-31T15:47:32.434Z,1.30
2022-12-31T15:50:08.740Z,1.43
2022-12-31T15:52:50.453Z,1.00
2022-12-31T15:55:23.818Z,1.10
2022-12-31T15:57:51.265Z,1.30
2022-12-31T16:00:20.601Z,1.50
2022-12-31T16:02:49.055Z,1.63
2022-12-31T16:05:21.271Z,1.70
2022-12-31T16:07:48.898Z,1.10
2022-12-31T16:10:24.863Z,1.57
2022-12-31T16:12:53.521Z,1.50
2022-12-31T16:15:22.960Z,1.67
2022-12-31T16:17:58.988Z,2.40
2022-12-31T16:20:27.881Z,2.20
2022-12-31T16:23:00.223Z,2.20
2022-12-31T16:25:31.202Z,2.40
2022-12-31T16:27:59.533Z,1.80
2022-12-31T16:30:28.489Z,2.20
2022-12-31T16:32:59.180Z,2.07
2022-12-31T16:35:31.227Z,2.20
2022-12-31T16:38:17.617Z,2.07
2022-12-31T16:41:04.932Z,1.70
2022-12-31T16:43:32.260Z,2.40
2022-12-31T16:46:10.142Z,1.50
2022-12-31T16:48:38.420Z,1.73
2022-12-31T16:51:06.379Z,1.87
2022-12-31T16:53:37.871Z,1.50
2022-12-31T16:56:08.902Z,1.93
2022-12-31T16:58:37.981Z,1.90
2022-12-31T17:01:13.660Z,2.23
2022-12-31T17:03:43.530Z,1.83
2022-12-31T17:06:12.453Z,2.10
2022-12-31T17:08:48.670Z,2.20
2022-12-31T17:11:31.397Z,2.33
2022-12-31T17:14:09.845Z,2.37
2022-12-31T17:16:45.139Z,2.20
2022-12-31T17:19:30.981Z,1.90
2022-12-31T17:21:58.535Z,1.30
2022-12-31T17:24:25.857Z,1.47
2022-12-31T17:26:53.642Z,1.67
2022-12-31T17:29:26.198Z,1.70
2022-12-31T17:32:01.806Z,1.67
2022-12-31T17:34:33.990Z,1.60
2022-12-31T17:37:02.647Z,2.00
2022-12-31T17:39:44.491Z,1.50
2022-12-31T17:42:12.546Z,2.00
2022-12-31T17:44:41.700Z,1.70
2022-12-31T17:47:13.950Z,2.27
2022-12-31T17:49:42.734Z,2.73
2022-12-31T17:52:14.058Z,2.70
2022-12-31T17:54:41.627Z,3.23
2022-12-31T17:57:21.652Z,3.03
2022-12-31T17:59:49.056Z,3.33
2022-12-31T18:02:16.610Z,3.50
2022-12-31T18:04:44.042Z,3.67
2022-12-31T18:07:11.471Z,3.80
2022-12-31T18:09:41.569Z,3.07
2022-12-31T18:12:09.190Z,2.57
2022-12-31T18:14:36.587Z,3.47
2022-12-31T18:17:04.017Z,3.47
2022-12-31T18:20:03.568Z,3.80
2022-12-31T18:22:18.776Z,3.07
2022-12-31T18:24:46.083Z,2.47
2022-12-31T18:27:17.713Z,2.57
2022-12-31T18:29:45.332Z,2.73
2022-12-31T18:32:20.317Z,2.77
2022-12-31T18:34:47.766Z,2.67
2022-12-31T18:37:21.428Z,2.80
2022-12-31T18:39:49.290Z,2.93
2022-12-31T18:42:17.947Z,3.70
2022-12-31T18:44:45.483Z,3.40
2022-12-31T18:47:17.406Z,2.17
2022-12-31T18:49:48.873Z,2.73
2022-12-31T18:52:17.335Z,3.07
2022-12-31T18:54:44.692Z,2.70
2022-12-31T18:57:12.931Z,2.33
2022-12-31T18:59:40.446Z,2.37
2022-12-31T19:02:14.036Z,2.30
2022-12-31T19:04:41.492Z,2.77
2022-12-31T19:07:08.884Z,3.70
2022-12-31T19:09:58.107Z,3.00
2022-12-31T19:12:23.609Z,2.53
2022-12-31T19:14:51.030Z,2.87
2022-12-31T19:17:18.404Z,2.83
2022-12-31T19:19:45.722Z,3.17
2022-12-31T19:22:16.406Z,3.53
2022-12-31T19:24:43.690Z,2.93
2022-12-31T19:27:11.332Z,3.47
2022-12-31T19:29:38.745Z,5.17
2022-12-31T19:32:06.358Z,6.20
2022-12-31T19:34:33.881Z,6.10
2022-12-31T19:37:01.266Z,4.70
2022-12-31T19:39:28.575Z,3.30
2022-12-31T19:41:59.153Z,3.90
2022-12-31T19:44:27.139Z,3.67
2022-12-31T19:46:54.475Z,3.47
2022-12-31T19:49:21.888Z,3.47
2022-12-31T19:51:49.323Z,2.67
2022-12-31T19:54:16.624Z,3.27
2022-12-31T19:56:44.073Z,2.83
2022-12-31T19:59:11.471Z,3.80
2022-12-31T20:01:39.301Z,4.10
2022-12-31T20:04:06.736Z,3.20
2022-12-31T20:06:34.115Z,3.27
2022-12-31T20:09:01.392Z,3.33
2022-12-31T20:11:28.628Z,3.33
2022-12-31T20:13:56.026Z,2.90
2022-12-31T20:16:24.765Z,2.47
2022-12-31T20:18:52.154Z,2.27
2022-12-31T20:21:23.637Z,2.43
2022-12-31T20:23:51.824Z,2.20
2022-12-31T20:26:19.961Z,7.13
2022-12-31T20:28:47.655Z,19.23
2022-12-31T20:31:19.149Z,18.33
2022-12-31T20:33:56.227Z,25.23
2022-12-31T20:36:24.033Z,3.60
2022-12-31T20:38:51.450Z,2.00
2022-12-31T20:41:20.122Z,11.80
2022-12-31T20:43:47.500Z,10.77
2022-12-31T20:46:19.728Z,14.00
2022-12-31T20:48:48.318Z,9.73
2022-12-31T20:51:16.373Z,6.70
2022-12-31T20:53:51.015Z,3.97
2022-12-31T20:56:18.447Z,3.53
2022-12-31T20:58:45.885Z,2.57
2022-12-31T21:01:13.390Z,4.20
2022-12-31T21:06:29.808Z,5.83
2022-12-31T21:08:58.326Z,6.20
2022-12-31T21:11:44.512Z,3.60
2022-12-31T21:14:11.769Z,3.87
2022-12-31T21:16:39.120Z,3.10
2022-12-31T21:19:06.954Z,2.83
2022-12-31T21:21:34.484Z,3.00
2022-12-31T21:24:01.934Z,2.20
2022-12-31T21:26:30.745Z,2.30
2022-12-31T21:28:58.172Z,3.20
2022-12-31T21:31:25.666Z,2.97
2022-12-31T21:33:53.129Z,2.93
2022-12-31T21:36:20.765Z,3.17
2022-12-31T21:38:48.173Z,3.40
2022-12-31T21:41:35.169Z,4.73
2022-12-31T21:44:03.083Z,3.40
2022-12-31T21:46:30.575Z,3.07
2022-12-31T21:48:58.936Z,3.20
2022-12-31T21:51:26.564Z,3.90
2022-12-31T21:53:53.820Z,3.30
2022-12-31T21:56:21.888Z,2.97
2022-12-31T21:59:12.861Z,3.87
2022-12-31T22:02:00.032Z,4.10
2022-12-31T22:05:00.975Z,4.33
2022-12-31T22:07:14.975Z,4.77
2022-12-31T22:09:42.319Z,4.10
2022-12-31T22:12:09.694Z,5.00
2022-12-31T22:14:37.096Z,3.57
2022-12-31T22:17:04.387Z,3.07
2022-12-31T22:19:33.686Z,3.30
2022-12-31T22:22:10.987Z,2.80
2022-12-31T22:24:38.572Z,3.07
2022-12-31T22:27:28.571Z,3.23
2022-12-31T22:29:54.369Z,2.50
2022-12-31T22:32:21.769Z,2.53
2022-12-31T22:34:49.166Z,2.77
2022-12-31T22:37:46.340Z,2.23
2022-12-31T22:40:04.011Z,1.63
2022-12-31T22:42:31.296Z,1.70
2022-12-31T22:44:58.686Z,2.27
2022-12-31T22:47:25.977Z,2.20
2022-12-31T22:49:53.346Z,1.53
2022-12-31T22:52:20.728Z,2.60
2022-12-31T22:54:48.050Z,2.70
2022-12-31T22:57:20.025Z,2.00
2022-12-31T22:59:47.817Z,2.37
2022-12-31T23:02:20.564Z,1.87
2022-12-31T23:04:48.040Z,3.17
2022-12-31T23:07:15.377Z,4.23
2022-12-31T23:10:01.420Z,3.80
2022-12-31T23:12:28.738Z,4.33
2022-12-31T23:15:14.543Z,3.00
2022-12-31T23:18:00.721Z,4.00
2022-12-31T23:20:46.919Z,5.67
2022-12-31T23:23:15.907Z,10.53
2022-12-31T23:25:46.006Z,14.83
2022-12-31T23:28:14.992Z,17.27
2022-12-31T23:30:43.060Z,15.20
2022-12-31T23:33:14.123Z,13.33
2022-12-31T23:35:41.471Z,14.00
2022-12-31T23:38:08.913Z,12.93
2022-12-31T23:40:36.172Z,12.53
2022-12-31T23:43:04.856Z,18.77
2022-12-31T23:45:33.477Z,12.63
2022-12-31T23:48:01.419Z,11.07
2022-12-31T23:50:29.104Z,8.03
2022-12-31T23:52:56.407Z,8.23
2022-12-31T23:55:23.820Z,8.80
2022-12-31T23:57:51.122Z,8.27
